Accueil
METAR-TAF:

METAR-TAF

Aéroports :

Aéroport de Cherbourg - Maupertus

Cherbourg, France

latitude: 49-39N, longitude: 001-28W, altitude: 138 m

Observation

Le bulletin a été fait il y a 20 minutes, à 18:00 UTC
Vent 6 kt de nord-est
Température 6°C
Humidité 93%
Pression 1038 hPa
Visibilité 10 km ou plus
pas de nuages en-dessous de 1500 mètres et pas de cumulonimbus.

METAR: LFRC 271800Z AUTO 05006KT CAVOK 06/05 Q1038 NOSIG

Heure: 19:20 (18:20 UTC)

Prévision

Le bulletin a été fait il y a 4 heures et 20 minutes, à 14:00 UTC
Prévision valable du 27 à 15 UTC au 27 à 24 UTC
Vent 10 kt de nord-est
Visibilité 10 km ou plus
Nuages épars à une hauteur de 1600 ft

TAF: LFRC 271400Z 2715/2724 05010KT 9999 SCT016

Observations et prévisions météorologiques de plus de 4000 aéroports (messages METAR et TAF).

Les stations disponibles sont représentées par des disques jaunes et rouges sur la carte.

Passer la souris dessus pour voir le nom de la station.

Cliquer dessus pour voir les observations et prévisions météorologiques.

Pour changer de carte: cliquez sur les boutons verts avec une croix noire pour zoomer, sur le bouton vert avec un tiret pour effectuer un zoom arrière, ou sur les flèches vertes pour les cartes adjacentes.


METAR-TAF: